Deinum, Netherlands
Current Conditions -  °F | °C
As of 4:55 AM on Sunday 25 Jan 2015 (Local Time) from EHLW Reporting Station
Haze Haze  
Wind Chill: 32°   Ceiling: 13000
Heat Index: 37°   Visibility: 6mi
Dew Point: 36°   Wind: 7mph
Humidity: 93%   Direction: 250°WSW
Pressure: 30.3"   Gusts: NA
Location:  53.19°N, 5.72°E
Report Text: EHLW 250355Z AUTO 25006KT 9000 BR OVC130 03/02 Q1026 BLU
Loading
Personal Weather Stations






























Interactive Weather Map New forecast layout! Learn more

10-Day Weather Forecast

Advertisements
Track Severe Weather on mobile